Alden, NY (14004)

1:57 AM EST on February 10, 2016 (GMT -0500)
Marilla, NY | | Change Station
CLOSE
Current Station
Personal Weather Station
Location: Alden, NY
Elevation: 906 ft
Nearby Weather Stations

Elev 906 ft 42.86 °N, 78.53 °W | Updated 25 seconds ago

Snow
Snow
30.9 °F
Feels Like 23 °F
N
9.6
Wind Variable Wind from WSW
Gusts 12.5 mph

Today
High -- | Low -- °F
--% Chance of Precip.
Yesterday
High -- | Low -- °F
Precip. -- in
Pressure 29.52 in
Visibility 3.0 miles
Clouds Overcast 1300 ft
Windchill 23 °F
Dew Point 21 °F
Humidity 67%
Rainfall Not available.
Snow Depth Not available.
7:18 AM 5:38 PM
Waxing Crescent, 4% visible
METAR KBUF 100654Z 24015G26KT 3SM -SN BLSN OVC013 M01/M03 A2949 RMK AO2 PK WND 23030/0637 SLP995 DRSN P0000 T10111033 $
Pressure 29.52 in
Visibility 3.0 miles
Clouds Overcast 1300 ft
Windchill 23 °F
Dew Point 21 °F
Humidity 67%
Rainfall Not available.
Snow Depth Not available.
7:18 AM 5:38 PM
Waxing Crescent, 4% visible
METAR KBUF 100654Z 24015G26KT 3SM -SN BLSN OVC013 M01/M03 A2949 RMK AO2 PK WND 23030/0637 SLP995 DRSN P0000 T10111033 $

10-Day Weather Forecast

Almanac

Astronomy

Feb. 10, 2016 Rise Set
Actual Time
Civil Twilight
Nautical Twilight
Astronomical Twilight
Moon
Length of Visible Light
Length of Day
Tomorrow will be .
, % of the Moon is Illuminated

Today's Extremes

State Highs State Lows

Community

WunderPhotos

Upload Photos

1,891,826 photos uploaded!

WunderBlog® & News

Nearby

Air Quality

  Air Quality AQ Index Pollutant
Not available.

Snow Depth

Station Depth Elevation

Earthquake Activity

City Distance Mag. Time & Date
Minimum magnitude displayed is 2.5.

Coastal Water Temperatures

Place Temperature

Stations

Nearby Weather Stations

Station Location Temp. Windchill Dew Point Humidity Wind Precip. Elev Updated Type
                   

Watches & Warnings

There are currently no watches in effect.